Terminal Aerodrome Forecast
Issued by NWS

Home | Current Version | Previous Version | Graphics & Text | Print | Product List | Glossary On
Versions: 1 2 3 4 5 6 7 8 9 10 11 12 13 14 15 16 17 18 19 20 21 22 23 24
000
FTUS45 KGGW 280500
TAFGDV
TAF
KGDV 280520Z 2806/2906 26020KT P6SM -SHRA BKN029 BKN040
     FM281200 25023G31KT 6SM -SHRA BKN040
     FM281500 26030G44KT 6SM -SHRA BKN040
     FM290000 29032G47KT P6SM VCSH BKN090
     FM290300 29023G31KT P6SM VCSH BKN090
      AMD NOT SKED=

USA.gov is the U.S. government's official web portal to all federal, state and local government web resources and services.